Terminal Aerodrome Forecast
Issued by NWS Shreveport, LA

Home | Current Version | Previous Version | Text Only | Print | Product List | Glossary On
Versions: 1 2 3 4 5 6 7 8 9 10 11 12 13 14 15 16 17 18 19
000
FTUS44 KSHV 011745
TAFTXK
TAF
KTXK 011745Z 0118/0218 20009KT 6SM HZ BKN020 BKN030
     FM012100 19010KT P6SM VCTS BKN035CB BKN250
     FM020200 18009KT P6SM SCT050 OVC250
     FM021000 18008KT 6SM BR BKN010
      TEMPO 0210/0214 5SM BR OVC005
     FM021600 19012G18KT P6SM BKN025 OVC035=

USA.gov is the U.S. government's official web portal to all federal, state and local government web resources and services.